Fort Dodge, KS (67843)

2:35 PM CST on November 21, 2014 (GMT -0600)
Dodge City Regional | Change Station
CLOSE
Current Station
Airport
Location: Dodge City,
Elevation: 2592 ft
Nearby Weather Stations

Elev 2592 ft 37.76 °N, 99.97 °W | Updated 13 minutes ago

Overcast
Overcast
47 °F
Feels Like 47 °F
N
6
Wind Variable Wind from SSE

Today
High -- | Low -- °F
--% Chance of Precip.
Yesterday
High -- | Low -- °F
Precip. -- in
7:26 AM 5:24 PM
Waning Crescent, 1% visible
Pressure 29.97 in
Visibility 8.0 miles
Clouds Scattered Clouds 1100 ft
Dew Point 39 °F
Humidity 74%
Rainfall 0.00 in
Snow Depth Not available.
UV 2 out of 12
Pollen .10 out of 12
Air Quality Not available.
Flu Activity Not available.
SPECI KDDC 212022Z AUTO 16005KT 8SM SCT011 08/04 A2997 RMK AO2 T00830039

More Conditions Fewer Conditions

Pressure 29.97 in
Visibility 8.0 miles
Clouds Scattered Clouds 1100 ft
Dew Point 39 °F
Humidity 74%
Rainfall 0.00 in
Snow Depth Not available.
UV 2 out of 12
Pollen .10 out of 12
Air Quality Not available.
Flu Activity Not available.
SPECI KDDC 212022Z AUTO 16005KT 8SM SCT011 08/04 A2997 RMK AO2 T00830039

More Conditions Fewer Conditions

10-Day Weather Forecast

Almanac

Astronomy

Nov. 21, 2014 Rise Set
Actual Time
Civil Twilight
Nautical Twilight
Astronomical Twilight
Moon
Length of Visible Light
Length of Day
Tomorrow will be .
, % of the Moon is Illuminated

Today's Extremes

State Highs State Lows

Community

WunderPhotos

Upload Photos

1,772,711 photos uploaded!

WunderBlogs® & News

Nearby

Air Quality

  Air Quality AQ Index Pollutant
Not available.

Snow Depth

Station Depth Elevation

Earthquake Activity

City Distance Mag. Time & Date
Minimum magnitude displayed is 2.5.

Coastal Water Temperatures

Place Temperature

Nearby Weather Stations